sensor_id;sensor_type;location;lat;lon;timestamp;temperature;humidity
35497;DHT22;21609;49.298;6.844;2023-08-06T00:00:51;21.10;61.50
35497;DHT22;21609;49.298;6.844;2023-08-06T00:03:16;21.00;60.70
35497;DHT22;21609;49.298;6.844;2023-08-06T00:05:42;21.00;61.40
35497;DHT22;21609;49.298;6.844;2023-08-06T00:08:08;21.00;60.60
35497;DHT22;21609;49.298;6.844;2023-08-06T00:10:33;21.00;60.60
35497;DHT22;21609;49.298;6.844;2023-08-06T00:12:59;21.00;60.70
35497;DHT22;21609;49.298;6.844;2023-08-06T00:15:24;21.00;60.60
35497;DHT22;21609;49.298;6.844;2023-08-06T00:17:50;21.00;60.70
35497;DHT22;21609;49.298;6.844;2023-08-06T00:20:15;21.00;60.70
35497;DHT22;21609;49.298;6.844;2023-08-06T00:22:41;21.00;60.60
35497;DHT22;21609;49.298;6.844;2023-08-06T00:25:06;21.00;60.70
35497;DHT22;21609;49.298;6.844;2023-08-06T00:27:32;21.00;60.60
35497;DHT22;21609;49.298;6.844;2023-08-06T00:29:58;21.00;60.70
35497;DHT22;21609;49.298;6.844;2023-08-06T00:32:23;21.00;60.60
35497;DHT22;21609;49.298;6.844;2023-08-06T00:34:49;21.00;60.70
35497;DHT22;21609;49.298;6.844;2023-08-06T00:37:17;21.00;60.60
35497;DHT22;21609;49.298;6.844;2023-08-06T00:39:43;21.00;60.70
35497;DHT22;21609;49.298;6.844;2023-08-06T00:42:09;21.00;60.70
35497;DHT22;21609;49.298;6.844;2023-08-06T00:44:35;21.00;60.70
35497;DHT22;21609;49.298;6.844;2023-08-06T00:47:00;21.00;60.70
35497;DHT22;21609;49.298;6.844;2023-08-06T00:49:26;21.00;60.70
35497;DHT22;21609;49.298;6.844;2023-08-06T00:51:52;21.00;60.60
35497;DHT22;21609;49.298;6.844;2023-08-06T00:54:17;21.00;60.70
35497;DHT22;21609;49.298;6.844;2023-08-06T00:56:43;21.00;60.60
35497;DHT22;21609;49.298;6.844;2023-08-06T00:59:09;20.90;60.60
35497;DHT22;21609;49.298;6.844;2023-08-06T01:01:35;20.90;60.60
35497;DHT22;21609;49.298;6.844;2023-08-06T01:04:01;20.90;60.60
35497;DHT22;21609;49.298;6.844;2023-08-06T01:09:12;20.90;60.60
35497;DHT22;21609;49.298;6.844;2023-08-06T01:14:23;20.90;60.60
35497;DHT22;21609;49.298;6.844;2023-08-06T01:16:50;20.90;60.60
35497;DHT22;21609;49.298;6.844;2023-08-06T01:19:19;20.90;60.60
35497;DHT22;21609;49.298;6.844;2023-08-06T01:21:44;20.90;60.60
35497;DHT22;21609;49.298;6.844;2023-08-06T01:24:10;20.90;60.70
35497;DHT22;21609;49.298;6.844;2023-08-06T01:26:37;20.90;60.60
35497;DHT22;21609;49.298;6.844;2023-08-06T01:31:56;20.90;60.60
35497;DHT22;21609;49.298;6.844;2023-08-06T01:34:27;20.90;60.60
35497;DHT22;21609;49.298;6.844;2023-08-06T01:36:53;20.90;60.70
35497;DHT22;21609;49.298;6.844;2023-08-06T01:39:18;20.90;60.60
35497;DHT22;21609;49.298;6.844;2023-08-06T01:41:47;20.90;60.60
35497;DHT22;21609;49.298;6.844;2023-08-06T01:44:13;20.90;60.60
35497;DHT22;21609;49.298;6.844;2023-08-06T01:46:38;20.90;60.60
35497;DHT22;21609;49.298;6.844;2023-08-06T01:49:04;20.90;60.60
35497;DHT22;21609;49.298;6.844;2023-08-06T01:51:29;20.90;60.60
35497;DHT22;21609;49.298;6.844;2023-08-06T01:53:55;20.90;60.60
35497;DHT22;21609;49.298;6.844;2023-08-06T01:56:20;20.80;60.50
35497;DHT22;21609;49.298;6.844;2023-08-06T01:58:46;20.80;60.50
35497;DHT22;21609;49.298;6.844;2023-08-06T02:01:11;20.80;60.50
35497;DHT22;21609;49.298;6.844;2023-08-06T02:03:37;20.80;60.60
35497;DHT22;21609;49.298;6.844;2023-08-06T02:06:02;20.80;60.60
35497;DHT22;21609;49.298;6.844;2023-08-06T02:08:27;20.80;60.50
35497;DHT22;21609;49.298;6.844;2023-08-06T02:10:53;20.80;60.50
35497;DHT22;21609;49.298;6.844;2023-08-06T02:13:19;20.80;60.50
35497;DHT22;21609;49.298;6.844;2023-08-06T02:15:45;20.80;60.60
35497;DHT22;21609;49.298;6.844;2023-08-06T02:18:13;20.80;60.50
35497;DHT22;21609;49.298;6.844;2023-08-06T02:20:38;20.80;60.50
35497;DHT22;21609;49.298;6.844;2023-08-06T02:23:04;20.80;60.60
35497;DHT22;21609;49.298;6.844;2023-08-06T02:25:29;20.80;60.50
35497;DHT22;21609;49.298;6.844;2023-08-06T02:27:55;20.80;60.60
35497;DHT22;21609;49.298;6.844;2023-08-06T02:30:20;20.80;60.50
35497;DHT22;21609;49.298;6.844;2023-08-06T02:32:46;20.80;60.60
35497;DHT22;21609;49.298;6.844;2023-08-06T02:35:11;20.80;60.50
35497;DHT22;21609;49.298;6.844;2023-08-06T02:37:37;20.80;60.60
35497;DHT22;21609;49.298;6.844;2023-08-06T02:40:02;20.80;60.50
35497;DHT22;21609;49.298;6.844;2023-08-06T02:42:28;20.80;60.60
35497;DHT22;21609;49.298;6.844;2023-08-06T02:44:54;20.80;60.60
35497;DHT22;21609;49.298;6.844;2023-08-06T02:47:22;20.80;60.60
35497;DHT22;21609;49.298;6.844;2023-08-06T02:49:47;20.80;60.50
35497;DHT22;21609;49.298;6.844;2023-08-06T02:52:13;20.80;60.60
35497;DHT22;21609;49.298;6.844;2023-08-06T02:54:38;20.70;60.50
35497;DHT22;21609;49.298;6.844;2023-08-06T02:57:04;20.70;60.50
35497;DHT22;21609;49.298;6.844;2023-08-06T02:59:30;20.70;60.50
35497;DHT22;21609;49.298;6.844;2023-08-06T03:01:55;20.70;60.50
35497;DHT22;21609;49.298;6.844;2023-08-06T03:04:21;20.70;60.50
35497;DHT22;21609;49.298;6.844;2023-08-06T03:06:46;20.70;60.50
35497;DHT22;21609;49.298;6.844;2023-08-06T03:09:12;20.70;60.50
35497;DHT22;21609;49.298;6.844;2023-08-06T03:11:37;20.70;60.50
35497;DHT22;21609;49.298;6.844;2023-08-06T03:14:03;20.70;60.50
35497;DHT22;21609;49.298;6.844;2023-08-06T03:16:28;20.70;60.50
35497;DHT22;21609;49.298;6.844;2023-08-06T03:18:54;20.70;60.50
35497;DHT22;21609;49.298;6.844;2023-08-06T03:21:19;20.70;60.50
35497;DHT22;21609;49.298;6.844;2023-08-06T03:23:46;20.70;60.60
35497;DHT22;21609;49.298;6.844;2023-08-06T03:26:12;20.70;60.50
35497;DHT22;21609;49.298;6.844;2023-08-06T03:28:37;20.70;60.50
35497;DHT22;21609;49.298;6.844;2023-08-06T03:31:03;20.70;60.50
35497;DHT22;21609;49.298;6.844;2023-08-06T03:33:28;20.70;60.50
35497;DHT22;21609;49.298;6.844;2023-08-06T03:35:54;20.70;60.50
35497;DHT22;21609;49.298;6.844;2023-08-06T03:38:19;20.70;60.60
35497;DHT22;21609;49.298;6.844;2023-08-06T03:40:48;20.70;60.50
35497;DHT22;21609;49.298;6.844;2023-08-06T03:43:13;20.70;60.50
35497;DHT22;21609;49.298;6.844;2023-08-06T03:45:39;20.70;60.50
35497;DHT22;21609;49.298;6.844;2023-08-06T03:48:05;20.60;60.40
35497;DHT22;21609;49.298;6.844;2023-08-06T03:50:30;20.60;60.40
35497;DHT22;21609;49.298;6.844;2023-08-06T03:52:56;20.60;60.40
35497;DHT22;21609;49.298;6.844;2023-08-06T03:55:21;20.60;60.50
35497;DHT22;21609;49.298;6.844;2023-08-06T03:57:47;20.60;60.50
35497;DHT22;21609;49.298;6.844;2023-08-06T04:00:12;20.60;60.50
35497;DHT22;21609;49.298;6.844;2023-08-06T04:02:38;20.60;60.50
35497;DHT22;21609;49.298;6.844;2023-08-06T04:05:04;20.60;60.50
35497;DHT22;21609;49.298;6.844;2023-08-06T04:07:29;20.60;60.40
35497;DHT22;21609;49.298;6.844;2023-08-06T04:09:56;20.60;60.40
35497;DHT22;21609;49.298;6.844;2023-08-06T04:12:22;20.60;60.40
35497;DHT22;21609;49.298;6.844;2023-08-06T04:14:47;20.60;60.40
35497;DHT22;21609;49.298;6.844;2023-08-06T04:17:13;20.60;60.40
35497;DHT22;21609;49.298;6.844;2023-08-06T04:19:38;20.60;60.40
35497;DHT22;21609;49.298;6.844;2023-08-06T04:22:04;20.60;60.50
35497;DHT22;21609;49.298;6.844;2023-08-06T04:24:30;20.60;60.40
35497;DHT22;21609;49.298;6.844;2023-08-06T04:26:55;20.60;60.40
35497;DHT22;21609;49.298;6.844;2023-08-06T04:29:20;20.60;60.40
35497;DHT22;21609;49.298;6.844;2023-08-06T04:31:46;20.60;60.50
35497;DHT22;21609;49.298;6.844;2023-08-06T04:34:11;20.60;60.50
35497;DHT22;21609;49.298;6.844;2023-08-06T04:36:37;20.60;60.50
35497;DHT22;21609;49.298;6.844;2023-08-06T04:39:04;20.60;60.40
35497;DHT22;21609;49.298;6.844;2023-08-06T04:41:29;20.60;60.40
35497;DHT22;21609;49.298;6.844;2023-08-06T04:43:56;20.60;60.50
35497;DHT22;21609;49.298;6.844;2023-08-06T04:46:21;20.60;60.50
35497;DHT22;21609;49.298;6.844;2023-08-06T04:48:47;20.60;60.40
35497;DHT22;21609;49.298;6.844;2023-08-06T04:51:12;20.60;60.50
35497;DHT22;21609;49.298;6.844;2023-08-06T04:53:38;20.60;60.50
35497;DHT22;21609;49.298;6.844;2023-08-06T04:56:03;20.60;60.40
35497;DHT22;21609;49.298;6.844;2023-08-06T04:58:29;20.60;60.50
35497;DHT22;21609;49.298;6.844;2023-08-06T05:00:54;20.50;60.40
35497;DHT22;21609;49.298;6.844;2023-08-06T05:03:20;20.50;60.40
35497;DHT22;21609;49.298;6.844;2023-08-06T05:05:46;20.50;60.40
35497;DHT22;21609;49.298;6.844;2023-08-06T05:08:15;20.50;60.40
35497;DHT22;21609;49.298;6.844;2023-08-06T05:10:44;20.50;60.40
35497;DHT22;21609;49.298;6.844;2023-08-06T05:13:10;20.50;60.50
35497;DHT22;21609;49.298;6.844;2023-08-06T05:15:35;20.50;60.40
35497;DHT22;21609;49.298;6.844;2023-08-06T05:18:01;20.50;60.40
35497;DHT22;21609;49.298;6.844;2023-08-06T05:20:26;20.50;60.50
35497;DHT22;21609;49.298;6.844;2023-08-06T05:22:51;20.50;60.40
35497;DHT22;21609;49.298;6.844;2023-08-06T05:25:17;20.50;60.40
35497;DHT22;21609;49.298;6.844;2023-08-06T05:27:42;20.50;60.40
35497;DHT22;21609;49.298;6.844;2023-08-06T05:30:08;20.50;60.40
35497;DHT22;21609;49.298;6.844;2023-08-06T05:32:34;20.50;60.50
35497;DHT22;21609;49.298;6.844;2023-08-06T05:34:59;20.50;60.40
35497;DHT22;21609;49.298;6.844;2023-08-06T05:37:25;20.50;60.40
35497;DHT22;21609;49.298;6.844;2023-08-06T05:39:50;20.50;60.40
35497;DHT22;21609;49.298;6.844;2023-08-06T05:42:16;20.50;60.40
35497;DHT22;21609;49.298;6.844;2023-08-06T05:44:41;20.50;60.40
35497;DHT22;21609;49.298;6.844;2023-08-06T05:47:06;20.50;60.50
35497;DHT22;21609;49.298;6.844;2023-08-06T05:49:32;20.50;60.50
35497;DHT22;21609;49.298;6.844;2023-08-06T05:51:57;20.50;60.50
35497;DHT22;21609;49.298;6.844;2023-08-06T05:54:23;20.50;60.50
35497;DHT22;21609;49.298;6.844;2023-08-06T05:56:48;20.50;60.50
35497;DHT22;21609;49.298;6.844;2023-08-06T05:59:14;20.50;60.60
35497;DHT22;21609;49.298;6.844;2023-08-06T06:01:39;20.50;60.50
35497;DHT22;21609;49.298;6.844;2023-08-06T06:04:05;20.50;60.50
35497;DHT22;21609;49.298;6.844;2023-08-06T06:06:30;20.50;60.50
35497;DHT22;21609;49.298;6.844;2023-08-06T06:08:56;20.50;60.50
35497;DHT22;21609;49.298;6.844;2023-08-06T06:11:21;20.40;60.50
35497;DHT22;21609;49.298;6.844;2023-08-06T06:13:50;20.50;60.50
35497;DHT22;21609;49.298;6.844;2023-08-06T06:16:16;20.50;60.60
35497;DHT22;21609;49.298;6.844;2023-08-06T06:18:41;20.50;60.60
35497;DHT22;21609;49.298;6.844;2023-08-06T06:21:07;20.40;60.50
35497;DHT22;21609;49.298;6.844;2023-08-06T06:23:32;20.40;60.60
35497;DHT22;21609;49.298;6.844;2023-08-06T06:25:59;20.40;60.50
35497;DHT22;21609;49.298;6.844;2023-08-06T06:28:24;20.40;60.50
35497;DHT22;21609;49.298;6.844;2023-08-06T06:30:51;20.40;60.50
35497;DHT22;21609;49.298;6.844;2023-08-06T06:33:16;20.40;60.50
35497;DHT22;21609;49.298;6.844;2023-08-06T06:35:42;20.40;60.60
35497;DHT22;21609;49.298;6.844;2023-08-06T06:38:07;20.50;60.60
35497;DHT22;21609;49.298;6.844;2023-08-06T06:40:33;20.40;60.60
35497;DHT22;21609;49.298;6.844;2023-08-06T06:42:58;20.40;60.60
35497;DHT22;21609;49.298;6.844;2023-08-06T06:45:23;20.40;60.60
35497;DHT22;21609;49.298;6.844;2023-08-06T06:47:49;20.40;60.50
35497;DHT22;21609;49.298;6.844;2023-08-06T06:50:14;20.40;60.50
35497;DHT22;21609;49.298;6.844;2023-08-06T06:52:40;20.40;60.50
35497;DHT22;21609;49.298;6.844;2023-08-06T06:55:06;20.50;60.70
35497;DHT22;21609;49.298;6.844;2023-08-06T06:57:32;20.40;60.60
35497;DHT22;21609;49.298;6.844;2023-08-06T06:59:57;20.40;60.50
35497;DHT22;21609;49.298;6.844;2023-08-06T07:02:23;20.40;60.70
35497;DHT22;21609;49.298;6.844;2023-08-06T07:04:49;20.40;60.60
35497;DHT22;21609;49.298;6.844;2023-08-06T07:07:15;20.40;60.50
35497;DHT22;21609;49.298;6.844;2023-08-06T07:09:40;20.40;60.70
35497;DHT22;21609;49.298;6.844;2023-08-06T07:12:06;20.40;60.80
35497;DHT22;21609;49.298;6.844;2023-08-06T07:14:31;20.40;61.20
35497;DHT22;21609;49.298;6.844;2023-08-06T07:16:57;20.40;61.00
35497;DHT22;21609;49.298;6.844;2023-08-06T07:19:23;20.40;60.90
35497;DHT22;21609;49.298;6.844;2023-08-06T07:21:48;20.50;61.20
35497;DHT22;21609;49.298;6.844;2023-08-06T07:24:14;20.40;60.90
35497;DHT22;21609;49.298;6.844;2023-08-06T07:26:39;20.40;61.00
35497;DHT22;21609;49.298;6.844;2023-08-06T07:29:05;20.40;61.20
35497;DHT22;21609;49.298;6.844;2023-08-06T07:31:30;20.40;61.50
35497;DHT22;21609;49.298;6.844;2023-08-06T07:33:56;20.40;61.50
35497;DHT22;21609;49.298;6.844;2023-08-06T07:36:21;20.40;61.40
35497;DHT22;21609;49.298;6.844;2023-08-06T07:38:47;20.40;61.50
35497;DHT22;21609;49.298;6.844;2023-08-06T07:41:16;20.50;61.60
35497;DHT22;21609;49.298;6.844;2023-08-06T07:43:42;20.50;61.70
35497;DHT22;21609;49.298;6.844;2023-08-06T07:46:08;20.40;61.40
35497;DHT22;21609;49.298;6.844;2023-08-06T07:48:33;20.50;61.70
35497;DHT22;21609;49.298;6.844;2023-08-06T07:50:59;20.50;61.60
35497;DHT22;21609;49.298;6.844;2023-08-06T07:53:25;20.50;61.90
35497;DHT22;21609;49.298;6.844;2023-08-06T07:55:54;20.50;61.90
35497;DHT22;21609;49.298;6.844;2023-08-06T07:58:20;20.50;61.90
35497;DHT22;21609;49.298;6.844;2023-08-06T08:00:46;20.50;62.00
35497;DHT22;21609;49.298;6.844;2023-08-06T08:03:12;20.50;62.00
35497;DHT22;21609;49.298;6.844;2023-08-06T08:05:41;20.50;62.00
35497;DHT22;21609;49.298;6.844;2023-08-06T08:08:06;20.50;61.90
35497;DHT22;21609;49.298;6.844;2023-08-06T08:10:32;20.50;62.00
35497;DHT22;21609;49.298;6.844;2023-08-06T08:12:58;20.50;61.90
35497;DHT22;21609;49.298;6.844;2023-08-06T08:15:24;20.50;61.90
35497;DHT22;21609;49.298;6.844;2023-08-06T08:17:51;20.50;62.00
35497;DHT22;21609;49.298;6.844;2023-08-06T08:20:17;20.50;61.90
35497;DHT22;21609;49.298;6.844;2023-08-06T08:22:43;20.60;62.10
35497;DHT22;21609;49.298;6.844;2023-08-06T08:25:08;20.60;61.90
35497;DHT22;21609;49.298;6.844;2023-08-06T08:27:33;20.60;61.90
35497;DHT22;21609;49.298;6.844;2023-08-06T08:29:59;20.60;62.00
35497;DHT22;21609;49.298;6.844;2023-08-06T08:32:24;20.60;62.00
35497;DHT22;21609;49.298;6.844;2023-08-06T08:34:50;20.60;62.10
35497;DHT22;21609;49.298;6.844;2023-08-06T08:37:15;20.60;62.00
35497;DHT22;21609;49.298;6.844;2023-08-06T08:39:41;20.60;62.20
35497;DHT22;21609;49.298;6.844;2023-08-06T08:42:06;20.60;61.90
35497;DHT22;21609;49.298;6.844;2023-08-06T08:44:32;20.60;62.10
35497;DHT22;21609;49.298;6.844;2023-08-06T08:47:01;20.60;62.20
35497;DHT22;21609;49.298;6.844;2023-08-06T08:49:27;20.60;62.00
35497;DHT22;21609;49.298;6.844;2023-08-06T08:51:53;20.60;62.20
35497;DHT22;21609;49.298;6.844;2023-08-06T08:54:18;20.60;62.10
35497;DHT22;21609;49.298;6.844;2023-08-06T08:56:45;20.60;62.00
35497;DHT22;21609;49.298;6.844;2023-08-06T08:59:10;20.60;61.90
35497;DHT22;21609;49.298;6.844;2023-08-06T09:01:36;20.60;61.90
35497;DHT22;21609;49.298;6.844;2023-08-06T09:04:02;20.60;62.00
35497;DHT22;21609;49.298;6.844;2023-08-06T09:06:28;20.60;61.80
35497;DHT22;21609;49.298;6.844;2023-08-06T09:09:12;20.60;61.90
35497;DHT22;21609;49.298;6.844;2023-08-06T09:11:42;20.60;61.90
35497;DHT22;21609;49.298;6.844;2023-08-06T09:14:08;20.60;61.90
35497;DHT22;21609;49.298;6.844;2023-08-06T09:16:36;20.60;61.80
35497;DHT22;21609;49.298;6.844;2023-08-06T09:19:11;20.60;61.80
35497;DHT22;21609;49.298;6.844;2023-08-06T09:21:38;20.60;61.90
35497;DHT22;21609;49.298;6.844;2023-08-06T09:24:13;20.60;61.80
35497;DHT22;21609;49.298;6.844;2023-08-06T09:26:42;20.60;61.70
35497;DHT22;21609;49.298;6.844;2023-08-06T09:29:08;20.60;61.80
35497;DHT22;21609;49.298;6.844;2023-08-06T09:31:39;20.60;61.70
35497;DHT22;21609;49.298;6.844;2023-08-06T09:34:06;20.70;62.00
35497;DHT22;21609;49.298;6.844;2023-08-06T09:36:37;20.70;61.90
35497;DHT22;21609;49.298;6.844;2023-08-06T09:39:11;20.70;62.00
35497;DHT22;21609;49.298;6.844;2023-08-06T09:41:37;20.70;62.00
35497;DHT22;21609;49.298;6.844;2023-08-06T09:44:02;20.70;62.10
35497;DHT22;21609;49.298;6.844;2023-08-06T09:46:28;20.70;61.90
35497;DHT22;21609;49.298;6.844;2023-08-06T09:48:53;20.70;61.90
35497;DHT22;21609;49.298;6.844;2023-08-06T09:51:20;20.70;61.90
35497;DHT22;21609;49.298;6.844;2023-08-06T09:53:46;20.70;62.00
35497;DHT22;21609;49.298;6.844;2023-08-06T09:56:12;20.80;62.50
35497;DHT22;21609;49.298;6.844;2023-08-06T09:58:39;20.80;62.00
35497;DHT22;21609;49.298;6.844;2023-08-06T10:01:04;20.80;62.00
35497;DHT22;21609;49.298;6.844;2023-08-06T10:03:30;20.80;62.80
35497;DHT22;21609;49.298;6.844;2023-08-06T10:05:57;20.80;61.90
35497;DHT22;21609;49.298;6.844;2023-08-06T10:08:23;20.80;61.90
35497;DHT22;21609;49.298;6.844;2023-08-06T10:10:48;20.80;62.00
35497;DHT22;21609;49.298;6.844;2023-08-06T10:13:14;20.80;62.00
35497;DHT22;21609;49.298;6.844;2023-08-06T10:15:40;20.80;61.90
35497;DHT22;21609;49.298;6.844;2023-08-06T10:18:06;20.80;61.90
35497;DHT22;21609;49.298;6.844;2023-08-06T10:20:35;20.80;61.80
35497;DHT22;21609;49.298;6.844;2023-08-06T10:23:04;20.80;61.90
35497;DHT22;21609;49.298;6.844;2023-08-06T10:25:30;20.80;61.80
35497;DHT22;21609;49.298;6.844;2023-08-06T10:27:56;20.90;61.90
35497;DHT22;21609;49.298;6.844;2023-08-06T10:30:22;20.80;61.80
35497;DHT22;21609;49.298;6.844;2023-08-06T10:32:49;20.80;61.80
35497;DHT22;21609;49.298;6.844;2023-08-06T10:36:01;20.80;61.80
35497;DHT22;21609;49.298;6.844;2023-08-06T10:38:04;20.80;61.70
35497;DHT22;21609;49.298;6.844;2023-08-06T10:40:31;20.80;61.80
35497;DHT22;21609;49.298;6.844;2023-08-06T10:43:03;20.80;61.80
35497;DHT22;21609;49.298;6.844;2023-08-06T10:45:28;20.80;61.80
35497;DHT22;21609;49.298;6.844;2023-08-06T10:47:55;20.90;61.90
35497;DHT22;21609;49.298;6.844;2023-08-06T10:50:24;20.90;61.80
35497;DHT22;21609;49.298;6.844;2023-08-06T10:52:50;20.90;61.80
35497;DHT22;21609;49.298;6.844;2023-08-06T10:55:26;20.90;61.80
35497;DHT22;21609;49.298;6.844;2023-08-06T10:57:51;20.90;61.80
35497;DHT22;21609;49.298;6.844;2023-08-06T11:00:17;21.00;61.80
35497;DHT22;21609;49.298;6.844;2023-08-06T11:02:43;21.00;61.80
35497;DHT22;21609;49.298;6.844;2023-08-06T11:05:10;21.00;61.80
35497;DHT22;21609;49.298;6.844;2023-08-06T11:07:35;21.00;61.80
35497;DHT22;21609;49.298;6.844;2023-08-06T11:10:04;21.00;61.80
35497;DHT22;21609;49.298;6.844;2023-08-06T11:12:31;21.00;61.80
35497;DHT22;21609;49.298;6.844;2023-08-06T11:14:56;21.00;61.70
35497;DHT22;21609;49.298;6.844;2023-08-06T11:17:22;21.00;61.70
35497;DHT22;21609;49.298;6.844;2023-08-06T11:19:47;21.00;61.60
35497;DHT22;21609;49.298;6.844;2023-08-06T11:22:14;21.10;61.70
35497;DHT22;21609;49.298;6.844;2023-08-06T11:24:39;21.00;61.60
35497;DHT22;21609;49.298;6.844;2023-08-06T11:27:14;21.00;61.50
35497;DHT22;21609;49.298;6.844;2023-08-06T11:29:40;21.00;61.60
35497;DHT22;21609;49.298;6.844;2023-08-06T11:32:07;21.00;61.50
35497;DHT22;21609;49.298;6.844;2023-08-06T11:34:33;21.00;61.60
35497;DHT22;21609;49.298;6.844;2023-08-06T11:36:58;21.00;61.60
35497;DHT22;21609;49.298;6.844;2023-08-06T11:39:24;21.00;61.50
35497;DHT22;21609;49.298;6.844;2023-08-06T11:41:49;21.00;61.50
35497;DHT22;21609;49.298;6.844;2023-08-06T11:44:15;21.10;61.60
35497;DHT22;21609;49.298;6.844;2023-08-06T11:46:53;21.00;61.40
35497;DHT22;21609;49.298;6.844;2023-08-06T11:54:40;21.10;61.40
35497;DHT22;21609;49.298;6.844;2023-08-06T11:57:05;21.10;61.40
35497;DHT22;21609;49.298;6.844;2023-08-06T11:59:31;21.10;61.40
35497;DHT22;21609;49.298;6.844;2023-08-06T12:01:57;21.10;61.30
35497;DHT22;21609;49.298;6.844;2023-08-06T12:04:22;21.10;61.30
35497;DHT22;21609;49.298;6.844;2023-08-06T12:06:48;21.10;61.40
35497;DHT22;21609;49.298;6.844;2023-08-06T12:09:13;21.10;61.40
35497;DHT22;21609;49.298;6.844;2023-08-06T12:11:39;21.20;61.30
35497;DHT22;21609;49.298;6.844;2023-08-06T12:14:04;21.20;61.30
35497;DHT22;21609;49.298;6.844;2023-08-06T12:16:30;21.20;61.20
35497;DHT22;21609;49.298;6.844;2023-08-06T12:18:55;21.20;61.10
35497;DHT22;21609;49.298;6.844;2023-08-06T12:21:20;21.20;61.10
35497;DHT22;21609;49.298;6.844;2023-08-06T12:23:46;21.30;61.10
35497;DHT22;21609;49.298;6.844;2023-08-06T12:26:11;21.30;61.20
35497;DHT22;21609;49.298;6.844;2023-08-06T12:28:37;21.30;61.10
35497;DHT22;21609;49.298;6.844;2023-08-06T12:31:02;21.30;61.00
35497;DHT22;21609;49.298;6.844;2023-08-06T12:33:28;21.30;61.00
35497;DHT22;21609;49.298;6.844;2023-08-06T12:35:53;21.30;61.00
35497;DHT22;21609;49.298;6.844;2023-08-06T12:38:20;21.40;61.00
35497;DHT22;21609;49.298;6.844;2023-08-06T12:40:45;21.40;61.10
35497;DHT22;21609;49.298;6.844;2023-08-06T12:43:11;21.40;61.10
35497;DHT22;21609;49.298;6.844;2023-08-06T12:45:36;21.40;61.00
35497;DHT22;21609;49.298;6.844;2023-08-06T12:48:02;21.40;60.90
35497;DHT22;21609;49.298;6.844;2023-08-06T12:50:28;21.40;60.90
35497;DHT22;21609;49.298;6.844;2023-08-06T12:52:53;21.40;60.90
35497;DHT22;21609;49.298;6.844;2023-08-06T12:55:19;21.40;60.80
35497;DHT22;21609;49.298;6.844;2023-08-06T12:57:44;21.40;60.90
35497;DHT22;21609;49.298;6.844;2023-08-06T13:00:10;21.40;60.90
35497;DHT22;21609;49.298;6.844;2023-08-06T13:02:35;21.40;60.80
35497;DHT22;21609;49.298;6.844;2023-08-06T13:05:01;21.40;60.90
35497;DHT22;21609;49.298;6.844;2023-08-06T13:07:30;21.40;60.90
35497;DHT22;21609;49.298;6.844;2023-08-06T13:09:56;21.40;60.90
35497;DHT22;21609;49.298;6.844;2023-08-06T13:12:21;21.40;60.90
35497;DHT22;21609;49.298;6.844;2023-08-06T13:14:48;21.40;61.10
35497;DHT22;21609;49.298;6.844;2023-08-06T13:17:13;21.40;61.10
35497;DHT22;21609;49.298;6.844;2023-08-06T13:19:39;21.50;61.20
35497;DHT22;21609;49.298;6.844;2023-08-06T13:22:05;21.50;61.20
35497;DHT22;21609;49.298;6.844;2023-08-06T13:24:33;21.50;61.10
35497;DHT22;21609;49.298;6.844;2023-08-06T13:26:59;21.50;60.70
35497;DHT22;21609;49.298;6.844;2023-08-06T13:29:25;21.50;60.80
35497;DHT22;21609;49.298;6.844;2023-08-06T13:31:51;21.60;60.90
35497;DHT22;21609;49.298;6.844;2023-08-06T13:34:17;21.60;60.80
35497;DHT22;21609;49.298;6.844;2023-08-06T13:36:42;21.60;60.80
35497;DHT22;21609;49.298;6.844;2023-08-06T13:39:08;21.60;60.60
35497;DHT22;21609;49.298;6.844;2023-08-06T13:41:33;21.60;60.40
35497;DHT22;21609;49.298;6.844;2023-08-06T13:43:59;21.60;60.30
35497;DHT22;21609;49.298;6.844;2023-08-06T13:46:24;21.60;60.20
35497;DHT22;21609;49.298;6.844;2023-08-06T13:48:50;21.70;61.30
35497;DHT22;21609;49.298;6.844;2023-08-06T13:51:18;21.60;60.00
35497;DHT22;21609;49.298;6.844;2023-08-06T13:53:44;21.60;60.30
35497;DHT22;21609;49.298;6.844;2023-08-06T13:56:09;21.60;60.10
35497;DHT22;21609;49.298;6.844;2023-08-06T13:58:36;21.70;59.80
35497;DHT22;21609;49.298;6.844;2023-08-06T14:01:02;21.70;60.10
35497;DHT22;21609;49.298;6.844;2023-08-06T14:03:27;21.70;60.00
35497;DHT22;21609;49.298;6.844;2023-08-06T14:05:53;21.70;59.90
35497;DHT22;21609;49.298;6.844;2023-08-06T14:08:20;21.70;59.90
35497;DHT22;21609;49.298;6.844;2023-08-06T14:10:46;21.70;59.90
35497;DHT22;21609;49.298;6.844;2023-08-06T14:13:11;21.70;60.40
35497;DHT22;21609;49.298;6.844;2023-08-06T14:15:38;21.70;60.50
35497;DHT22;21609;49.298;6.844;2023-08-06T14:18:06;21.70;60.40
35497;DHT22;21609;49.298;6.844;2023-08-06T14:20:33;21.70;60.20
35497;DHT22;21609;49.298;6.844;2023-08-06T14:22:59;21.60;60.10
35497;DHT22;21609;49.298;6.844;2023-08-06T14:25:25;21.70;60.20
35497;DHT22;21609;49.298;6.844;2023-08-06T14:27:50;21.60;60.10
35497;DHT22;21609;49.298;6.844;2023-08-06T14:30:16;21.60;60.10
35497;DHT22;21609;49.298;6.844;2023-08-06T14:32:41;21.60;60.00
35497;DHT22;21609;49.298;6.844;2023-08-06T14:35:07;21.60;60.10
35497;DHT22;21609;49.298;6.844;2023-08-06T14:37:32;21.60;60.20
35497;DHT22;21609;49.298;6.844;2023-08-06T14:39:58;21.60;60.40
35497;DHT22;21609;49.298;6.844;2023-08-06T14:42:23;21.60;60.60
35497;DHT22;21609;49.298;6.844;2023-08-06T14:44:49;21.60;60.30
35497;DHT22;21609;49.298;6.844;2023-08-06T14:47:15;21.60;60.40
35497;DHT22;21609;49.298;6.844;2023-08-06T14:49:40;21.50;60.40
35497;DHT22;21609;49.298;6.844;2023-08-06T14:52:06;21.50;60.30
35497;DHT22;21609;49.298;6.844;2023-08-06T14:54:31;21.50;60.20
35497;DHT22;21609;49.298;6.844;2023-08-06T14:56:57;21.50;60.20
35497;DHT22;21609;49.298;6.844;2023-08-06T14:59:23;21.50;60.20
35497;DHT22;21609;49.298;6.844;2023-08-06T15:01:48;21.50;60.20
35497;DHT22;21609;49.298;6.844;2023-08-06T15:04:13;21.50;60.20
35497;DHT22;21609;49.298;6.844;2023-08-06T15:06:39;21.50;60.40
35497;DHT22;21609;49.298;6.844;2023-08-06T15:09:04;21.50;60.20
35497;DHT22;21609;49.298;6.844;2023-08-06T15:11:30;21.60;60.10
35497;DHT22;21609;49.298;6.844;2023-08-06T15:13:55;21.50;60.00
35497;DHT22;21609;49.298;6.844;2023-08-06T15:16:21;21.60;60.00
35497;DHT22;21609;49.298;6.844;2023-08-06T15:18:46;21.50;60.00
35497;DHT22;21609;49.298;6.844;2023-08-06T15:21:14;21.60;60.00
35497;DHT22;21609;49.298;6.844;2023-08-06T15:23:39;21.50;60.00
35497;DHT22;21609;49.298;6.844;2023-08-06T15:26:04;21.60;60.00
35497;DHT22;21609;49.298;6.844;2023-08-06T15:28:30;21.60;60.20
35497;DHT22;21609;49.298;6.844;2023-08-06T15:30:55;21.60;60.20
35497;DHT22;21609;49.298;6.844;2023-08-06T15:33:21;21.60;60.10
35497;DHT22;21609;49.298;6.844;2023-08-06T15:35:47;21.70;59.90